Webcam Flughafen St.Gallen-Altenrhein

Live-Bilder und Zeitraffer LSZR / ACH.

 

Live aus Altenrhein
LIVE
LSZR 241050Z 04003KT 360V070 9999 FEW100 19/13 Q1010 NOSIG RMK H
Zeitraffer heute
2020-09-24 00:14:49
LSZR 232150Z AUTO 19005KT 160V220 CAVOK 18/12 Q1009